Time;durP1;ratioP1;P1;durP2;ratioP2;P2;SDS_P1;SDS_P2;PMS_P1;PMS_P2;Temp;Humidity;BMP_temperature;BMP_pressure;BME280_temperature;BME280_humidity;BME280_pressure;Samples;Min_cycle;Max_cycle;Signal;HPM_P1;HPM_P2
2022/02/08 00:01:38;;;;;;;4.78;4.15;;;;;;;0.95;80.00;92621.41;5100808;28;20039;-42
2022/02/08 00:04:04;;;;;;;12.10;8.15;;;;;;;1.16;80.39;92619.00;5099476;28;20028;-41
2022/02/08 00:06:44;;;;;;;11.13;7.40;;;;;;;1.27;80.00;92619.66;5101702;28;20034;-41
2022/02/08 00:09:11;;;;;;;19.98;10.15;;;;;;;1.28;78.71;92614.91;5100102;28;20038;-41
2022/02/08 00:11:36;;;;;;;20.40;8.73;;;;;;;1.26;78.70;92607.28;5100313;28;20012;-41
2022/02/08 00:14:03;;;;;;;13.77;8.38;;;;;;;1.25;78.21;92605.06;5100215;28;20024;-41
2022/02/08 00:16:29;;;;;;;6.72;5.03;;;;;;;1.20;77.58;92614.75;5099888;28;20437;-41
2022/02/08 00:18:54;;;;;;;5.13;4.15;;;;;;;1.22;77.54;92614.25;5100962;28;20027;-41
2022/02/08 00:21:20;;;;;;;4.03;3.63;;;;;;;1.29;77.38;92614.44;5105713;28;20081;-41
2022/02/08 00:23:45;;;;;;;6.90;4.63;;;;;;;1.29;77.59;92608.25;5094221;28;20046;-41
2022/02/08 00:26:11;;;;;;;8.70;5.10;;;;;;;1.24;77.78;92609.78;5099840;28;20412;-43
2022/02/08 00:28:37;;;;;;;4.82;4.15;;;;;;;1.27;76.74;92614.19;5099763;28;20020;-42
2022/02/08 00:31:02;;;;;;;4.60;3.75;;;;;;;1.30;76.17;92615.16;5101528;28;20027;-43
2022/02/08 00:33:28;;;;;;;7.10;4.20;;;;;;;1.34;76.30;92621.06;5099519;28;20489;-42
2022/02/08 00:35:53;;;;;;;7.10;4.32;;;;;;;1.30;76.24;92621.31;5098844;28;20521;-43
2022/02/08 00:38:19;;;;;;;7.13;4.60;;;;;;;1.33;75.61;92625.75;5095694;28;20047;-43
2022/02/08 00:40:47;;;;;;;8.88;3.95;;;;;;;1.42;76.19;92625.44;5099435;28;20027;-43
2022/02/08 00:43:16;;;;;;;5.00;4.45;;;;;;;1.36;75.12;92632.91;5099965;28;20412;-43
2022/02/08 00:46:03;;;;;;;4.30;3.63;;;;;;;1.30;75.35;92632.19;5101021;28;20036;-43
2022/02/08 00:48:38;;;;;;;18.42;5.10;;;;;;;1.37;75.39;92637.09;5100092;28;20051;-43
2022/02/08 00:51:04;;;;;;;3.17;2.88;;;;;;;1.25;75.32;92633.00;5100715;28;20030;-43
2022/02/08 00:53:30;;;;;;;3.40;3.03;;;;;;;1.31;75.66;92641.09;5100868;28;20032;-43
2022/02/08 00:55:56;;;;;;;3.65;3.28;;;;;;;1.39;75.33;92631.88;5100481;28;20493;-42
2022/02/08 00:58:21;;;;;;;3.35;2.67;;;;;;;1.29;74.44;92619.13;5099903;28;20421;-42
2022/02/08 01:00:47;;;;;;;5.57;3.97;;;;;;;1.35;75.04;92649.72;5100255;28;20024;-41
2022/02/08 01:03:13;;;;;;;4.70;4.15;;;;;;;1.39;75.07;92642.00;5097485;28;20039;-41
2022/02/08 01:05:45;;;;;;;4.47;3.78;;;;;;;1.41;74.63;92653.84;5098439;28;20038;-41
2022/02/08 01:08:10;;;;;;;3.75;3.20;;;;;;;1.29;73.52;92640.88;5090359;28;20161;-41
2022/02/08 01:10:38;;;;;;;8.27;6.13;;;;;;;1.23;73.76;92643.66;5090185;28;20440;-41
2022/02/08 01:13:05;;;;;;;4.15;3.75;;;;;;;1.15;73.68;92626.41;5090317;28;20028;-41
2022/02/08 01:15:31;;;;;;;7.00;4.00;;;;;;;1.28;73.22;92642.09;5090252;28;20089;-41
2022/02/08 01:17:58;;;;;;;12.43;7.32;;;;;;;1.20;74.27;92647.38;5089003;28;20032;-41
2022/02/08 01:20:36;;;;;;;9.75;4.50;;;;;;;1.03;73.50;92616.16;5090112;28;20054;-41
2022/02/08 01:23:05;;;;;;;9.77;6.28;;;;;;;1.36;73.96;92643.03;5089936;28;20046;-41
2022/02/08 01:25:37;;;;;;;5.20;4.53;;;;;;;1.31;73.86;92643.81;5090201;28;20040;-40
2022/02/08 01:28:20;;;;;;;12.20;5.90;;;;;;;1.19;74.03;92647.91;5090177;28;20058;-39
2022/02/08 01:36:27;;;;;;;20.27;11.52;;;;;;;1.22;73.33;92646.88;5089875;28;20059;-40
2022/02/08 01:44:22;;;;;;;3.65;3.08;;;;;;;1.14;72.54;92654.84;5090021;28;20097;-40
2022/02/08 01:49:56;;;;;;;2.65;2.00;;;;;;;1.13;71.22;92669.69;5108889;28;20039;-41
2022/02/08 01:52:03;;;;;;;4.43;2.25;;;;;;;1.01;70.64;92668.31;5109418;28;20043;-41
2022/02/08 01:54:29;;;;;;;4.28;3.10;;;;;;;1.02;70.55;92675.19;5110275;28;20608;-41
2022/02/08 01:56:55;;;;;;;2.42;2.05;;;;;;;0.94;69.85;92687.88;5109884;28;20060;-41
2022/02/08 01:59:22;;;;;;;2.40;2.20;;;;;;;0.82;68.20;92686.47;5110273;28;20031;-40
2022/02/08 02:01:47;;;;;;;2.88;2.22;;;;;;;0.76;68.56;92683.03;5109783;28;20454;-40
2022/02/08 02:04:13;;;;;;;2.17;1.70;;;;;;;0.55;67.54;92684.66;5110202;28;20024;-37
2022/02/08 02:06:39;;;;;;;4.22;1.30;;;;;;;0.43;68.92;92688.69;5113332;28;20028;-38
2022/02/08 02:09:05;;;;;;;1.45;1.20;;;;;;;0.43;68.87;92683.25;5113788;28;20020;-41
2022/02/08 02:11:31;;;;;;;2.45;1.77;;;;;;;0.38;68.39;92681.31;5113738;28;20118;-40
2022/02/08 02:13:57;;;;;;;1.55;1.27;;;;;;;0.17;67.85;92677.47;5113719;28;20084;-39
2022/02/08 02:16:39;;;;;;;1.50;1.40;;;;;;;0.22;68.59;92693.72;5113434;28;20024;-40
2022/02/08 02:19:05;;;;;;;1.60;1.50;;;;;;;0.22;69.42;92696.44;5113394;28;20607;-39
2022/02/08 02:21:30;;;;;;;1.85;1.60;;;;;;;0.25;69.35;92694.69;5113514;28;20119;-40
2022/02/08 02:23:55;;;;;;;1.73;1.63;;;;;;;0.30;68.86;92710.22;5113564;28;20023;-40
2022/02/08 02:26:21;;;;;;;1.52;1.42;;;;;;;0.19;68.95;92699.41;5113450;28;20030;-40
2022/02/08 02:28:47;;;;;;;1.55;1.45;;;;;;;0.28;68.57;92704.56;5112957;28;20420;-40
2022/02/08 02:31:12;;;;;;;1.67;1.52;;;;;;;0.12;68.92;92705.38;5113430;28;20023;-41
2022/02/08 02:33:38;;;;;;;2.13;1.70;;;;;;;0.08;68.07;92710.31;5113250;28;20034;-41
2022/02/08 02:36:03;;;;;;;2.35;1.50;;;;;;;0.12;68.72;92714.25;5109180;28;20163;-40
2022/02/08 02:38:29;;;;;;;1.40;1.30;;;;;;;0.15;68.58;92709.81;5092483;28;20071;-39
2022/02/08 02:40:54;;;;;;;1.73;1.30;;;;;;;0.15;68.11;92721.41;5092349;28;20478;-39
2022/02/08 02:43:20;;;;;;;2.20;1.23;;;;;;;0.07;68.15;92720.44;5093768;28;20173;-38
2022/02/08 02:45:46;;;;;;;2.35;1.10;;;;;;;-0.04;68.22;92732.06;5112763;28;20436;-39
2022/02/08 02:48:14;;;;;;;1.67;1.50;;;;;;;-0.03;68.39;92733.56;5113109;28;20023;-34
2022/02/08 02:50:39;;;;;;;3.20;2.33;;;;;;;0.03;66.77;92719.94;5112851;28;20400;-36
2022/02/08 02:53:05;;;;;;;6.18;2.58;;;;;;;-0.12;67.76;92727.66;5112669;28;20031;-37
2022/02/08 02:55:33;;;;;;;1.98;1.85;;;;;;;-0.06;68.05;92733.78;5112593;28;20034;-38
2022/02/08 02:58:00;;;;;;;2.83;2.28;;;;;;;-0.13;67.95;92737.75;5111654;28;20096;-37
2022/02/08 03:03:08;;;;;;;3.53;1.93;;;;;;;-0.07;68.54;92743.19;5106544;28;20114;-38
2022/02/08 03:19:09;;;;;;;1.77;1.50;;;;;;;0.10;66.93;92743.13;5112493;28;20417;-33
2022/02/08 03:21:35;;;;;;;4.05;1.77;;;;;;;-0.02;67.87;92743.16;5111902;28;20032;-36
2022/02/08 03:24:00;;;;;;;2.33;1.67;;;;;;;-0.08;67.55;92745.16;5112025;27;20031;-36
2022/02/08 03:26:26;;;;;;;4.78;2.40;;;;;;;-0.08;67.25;92758.72;5112240;28;20035;-38
2022/02/08 03:28:51;;;;;;;1.30;1.20;;;;;;;-0.12;67.00;92763.66;5111867;28;20100;-38
2022/02/08 03:31:16;;;;;;;2.38;1.77;;;;;;;-0.09;66.76;92773.50;5111814;28;20016;-36
2022/02/08 03:33:45;;;;;;;4.00;1.40;;;;;;;-0.07;67.59;92775.75;5111813;28;20024;-35
2022/02/08 03:36:11;;;;;;;;;;;;;;;-0.06;68.42;92780.66;5107187;28;20024;-36
2022/02/08 03:38:40;;;;;;;2.70;1.35;;;;;;;-0.12;66.18;92774.50;5091076;28;19923;-39
2022/02/08 03:41:08;;;;;;;3.08;1.35;;;;;;;-0.20;66.45;92770.84;5091216;28;20451;-40
2022/02/08 03:43:36;;;;;;;1.42;1.33;;;;;;;-0.31;67.27;92764.69;5091349;28;20020;-38
2022/02/08 03:46:13;;;;;;;4.82;3.00;;;;;;;-0.32;66.85;92766.66;5091528;28;20031;-39
2022/02/08 03:48:41;;;;;;;3.80;2.55;;;;;;;-0.26;66.38;92753.09;5091419;28;20032;-37
2022/02/08 03:51:15;;;;;;;3.38;2.30;;;;;;;-0.28;66.54;92766.41;5091402;28;20020;-38
2022/02/08 03:53:43;;;;;;;2.88;2.20;;;;;;;-0.39;67.51;92769.84;5091139;28;20032;-39
2022/02/08 03:56:10;;;;;;;2.42;2.20;;;;;;;-0.51;67.58;92744.00;5091263;28;20031;-39
2022/02/08 03:58:36;;;;;;;4.05;2.83;;;;;;;-0.39;67.10;92761.00;5090974;28;20057;-40
2022/02/08 04:04:00;;;;;;;2.58;2.22;;;;;;;-0.37;67.28;92775.53;5091014;28;20143;-38
2022/02/08 04:06:26;;;;;;;5.75;2.05;;;;;;;-0.44;66.91;92780.72;5091148;28;20108;-40
2022/02/08 04:08:51;;;;;;;2.30;2.10;;;;;;;-0.40;68.24;92778.50;5089320;28;20115;-39
2022/02/08 04:11:17;;;;;;;5.65;1.80;;;;;;;-0.34;67.39;92768.38;5090747;28;20024;-38
2022/02/08 04:13:53;;;;;;;3.17;1.90;;;;;;;-0.43;69.12;92777.50;5090754;28;20024;-40
2022/02/08 04:16:30;;;;;;;2.10;1.15;;;;;;;-0.51;69.29;92776.53;5091067;28;20088;-40
2022/02/08 04:19:22;;;;;;;4.45;1.80;;;;;;;-0.64;70.74;92797.22;5108071;28;20055;-38
2022/02/08 04:41:09;;;;;;;2.08;1.77;;;;;;;-0.72;69.06;92859.34;5090278;28;20020;-39
2022/02/08 04:46:24;;;;;;;3.60;2.13;;;;;;;-0.74;69.79;92858.34;5090340;28;20036;-41
2022/02/08 04:48:55;;;;;;;1.58;1.48;;;;;;;-0.81;69.11;92865.72;5090192;28;20032;-40
2022/02/08 04:51:27;;;;;;;2.67;1.60;;;;;;;-0.83;68.95;92870.16;5090239;28;20028;-38
2022/02/08 04:59:19;;;;;;;4.35;2.30;;;;;;;-1.07;70.17;92867.13;5090104;28;20027;-36
2022/02/08 05:26:51;;;;;;;2.00;1.80;;;;;;;-1.23;71.46;92857.72;5090429;28;20106;-39
2022/02/08 05:40:40;;;;;;;6.53;3.58;;;;;;;-1.13;69.13;92917.84;5105400;28;20201;-41
2022/02/08 05:43:16;;;;;;;7.05;5.10;;;;;;;-1.00;68.26;92920.84;5112360;28;20031;-41
2022/02/08 05:48:36;;;;;;;3.20;2.72;;;;;;;-0.89;67.57;92927.03;5085354;28;20102;-38
2022/02/08 05:51:06;;;;;;;18.65;9.20;;;;;;;-0.96;67.23;92926.75;5093683;28;20038;-42
2022/02/08 05:53:52;;;;;;;10.55;6.88;;;;;;;-0.86;66.95;92936.16;5093698;28;20036;-40
2022/02/08 05:56:17;;;;;;;7.53;4.57;;;;;;;-0.81;67.30;92944.31;5093108;28;20036;-37
2022/02/08 05:58:45;;;;;;;9.13;4.82;;;;;;;-0.93;67.39;92937.34;5093211;28;20020;-37
2022/02/08 06:01:11;;;;;;;29.38;12.93;;;;;;;-0.75;67.05;92971.44;5104404;28;20032;-37
2022/02/08 06:03:37;;;;;;;5.22;4.07;;;;;;;-0.83;65.65;92987.44;5102697;28;20031;-38
2022/02/08 06:06:02;;;;;;;7.63;5.68;;;;;;;-0.77;66.75;92993.59;5102228;28;20477;-40
2022/02/08 06:08:28;;;;;;;3.88;2.90;;;;;;;-0.74;66.16;92996.56;5101730;28;20035;-40
2022/02/08 06:11:12;;;;;;;6.05;4.15;;;;;;;-0.74;66.63;93000.03;5103923;28;20023;-39
2022/02/08 06:13:38;;;;;;;6.20;3.95;;;;;;;-0.70;66.92;93007.91;5102552;28;20081;-40
2022/02/08 06:16:06;;;;;;;5.65;4.30;;;;;;;-0.78;66.13;93013.06;5093268;28;20028;-40
2022/02/08 06:18:32;;;;;;;11.10;4.40;;;;;;;-0.74;65.59;93008.16;5105684;28;20027;-39
2022/02/08 06:20:58;;;;;;;18.33;7.20;;;;;;;-0.70;65.55;93030.34;5113111;28;20019;-41
2022/02/08 06:23:24;;;;;;;7.57;4.47;;;;;;;-0.79;65.08;93023.16;5105764;28;20489;-39
2022/02/08 06:25:50;;;;;;;12.80;5.57;;;;;;;-0.78;66.42;93026.63;5110355;28;20035;-42
2022/02/08 06:28:17;;;;;;;27.23;8.15;;;;;;;-0.76;66.36;93048.56;5113365;28;20032;-41
2022/02/08 06:30:43;;;;;;;15.43;6.20;;;;;;;-0.70;66.35;93048.56;5113227;28;20118;-41
2022/02/08 06:33:12;;;;;;;7.75;3.47;;;;;;;-0.61;65.85;93054.53;5112958;28;20580;-41
2022/02/08 06:35:37;;;;;;;19.15;7.97;;;;;;;-0.59;65.22;93062.19;5112429;28;20023;-39
2022/02/08 06:38:03;;;;;;;18.13;6.40;;;;;;;-0.53;65.52;93069.09;5092072;28;20044;-40
2022/02/08 06:40:31;;;;;;;7.55;3.42;;;;;;;-0.58;65.96;93064.41;5091010;28;20028;-41
2022/02/08 06:43:02;;;;;;;14.73;6.05;;;;;;;-0.53;65.91;93077.25;5090531;28;20039;-41
2022/02/08 06:45:27;;;;;;;5.70;4.00;;;;;;;-0.52;65.51;93078.72;5091180;28;20098;-40
2022/02/08 06:47:53;;;;;;;9.10;5.28;;;;;;;-0.59;65.15;93090.03;5090615;28;20036;-40
2022/02/08 06:50:19;;;;;;;7.05;4.38;;;;;;;-0.55;65.51;93090.53;5090000;28;20103;-39
2022/02/08 06:52:44;;;;;;;9.73;3.97;;;;;;;-0.60;65.43;93093.97;5090382;28;20023;-39
2022/02/08 06:55:10;;;;;;;11.52;5.55;;;;;;;-0.63;65.23;93103.09;5092045;28;20028;-39
2022/02/08 07:00:29;;;;;;;10.95;4.93;;;;;;;-0.54;65.17;93104.84;5092128;28;20544;-39
2022/02/08 07:02:55;;;;;;;10.40;4.28;;;;;;;-0.59;65.40;93122.56;5092391;28;20035;-40
2022/02/08 07:05:20;;;;;;;5.18;3.33;;;;;;;-0.58;64.98;93115.16;5092332;28;20031;-39
2022/02/08 07:07:46;;;;;;;11.20;3.97;;;;;;;-0.50;64.87;93116.19;5092023;28;20032;-40
2022/02/08 07:10:11;;;;;;;3.88;2.95;;;;;;;-0.56;64.78;93127.00;5091861;28;20024;-40
2022/02/08 07:12:37;;;;;;;4.13;2.92;;;;;;;-0.60;65.70;93120.31;5092141;28;20059;-39
2022/02/08 07:15:09;;;;;;;5.72;3.60;;;;;;;-0.53;64.74;93130.72;5092198;28;20035;-39
2022/02/08 07:17:34;;;;;;;4.63;3.35;;;;;;;-0.62;64.48;93125.50;5092166;28;20044;-40
2022/02/08 07:19:59;;;;;;;6.20;3.80;;;;;;;-0.57;64.95;93141.81;5097047;28;20467;-39
2022/02/08 07:22:25;;;;;;;5.13;3.25;;;;;;;-0.51;64.69;93139.84;5103940;28;20024;-38
2022/02/08 07:24:50;;;;;;;4.97;2.65;;;;;;;-0.64;63.79;93134.13;5112205;28;20028;-39
2022/02/08 07:27:16;;;;;;;5.25;3.13;;;;;;;-0.48;64.03;93144.31;5112231;28;20023;-38
2022/02/08 07:29:50;;;;;;;5.03;3.63;;;;;;;-0.46;63.59;93152.72;5110838;27;20077;-40
2022/02/08 07:32:15;;;;;;;5.15;3.13;;;;;;;-0.46;63.26;93157.38;5112024;28;20035;-39
2022/02/08 07:34:49;;;;;;;7.07;5.05;;;;;;;-0.45;64.38;93153.44;5111584;28;20424;-38
2022/02/08 07:37:30;;;;;;;3.67;3.10;;;;;;;-0.53;64.01;93155.13;5097476;28;20035;-38
2022/02/08 07:40:01;;;;;;;3.15;2.20;;;;;;;-0.50;63.67;93144.06;5091528;28;20031;-40
2022/02/08 07:42:27;;;;;;;3.38;2.33;;;;;;;-0.48;64.27;93168.72;5091543;28;20024;-39
2022/02/08 07:44:52;;;;;;;7.80;4.15;;;;;;;-0.46;63.79;93165.53;5091083;28;20039;-40
2022/02/08 07:47:17;;;;;;;8.95;4.38;;;;;;;-0.41;64.10;93173.69;5091196;28;20028;-39
2022/02/08 07:49:43;;;;;;;8.70;4.35;;;;;;;-0.30;64.34;93171.03;5103884;28;20028;-41
2022/02/08 07:52:10;;;;;;;17.40;7.07;;;;;;;-0.28;64.22;93176.00;5111321;28;20057;-40
2022/02/08 07:54:36;;;;;;;8.40;3.75;;;;;;;-0.36;64.53;93183.81;5110941;28;20023;-37
2022/02/08 07:57:02;;;;;;;7.40;3.85;;;;;;;-0.30;64.29;93186.56;5110666;28;20062;-41
2022/02/08 07:59:27;;;;;;;4.20;2.83;;;;;;;-0.25;62.60;93192.03;5111330;28;20031;-40
2022/02/08 08:01:53;;;;;;;11.95;6.95;;;;;;;-0.21;63.43;93205.34;5111409;28;20108;-40
2022/02/08 08:04:18;;;;;;;10.52;5.22;;;;;;;-0.20;64.02;93210.31;5111430;28;20485;-37
2022/02/08 08:06:44;;;;;;;7.82;3.63;;;;;;;-0.09;62.82;93204.91;5111326;28;20034;-40
2022/02/08 08:09:09;;;;;;;7.72;4.45;;;;;;;-0.09;62.43;93215.06;5111020;28;20481;-39
2022/02/08 08:11:37;;;;;;;10.02;5.47;;;;;;;-0.04;63.49;93225.91;5111401;28;20098;-36
2022/02/08 08:14:04;;;;;;;4.47;3.38;;;;;;;-0.12;63.28;93229.56;5111301;28;20118;-40
2022/02/08 08:16:54;;;;;;;7.15;4.00;;;;;;;-0.21;63.33;93241.38;5110829;27;20035;-40
2022/02/08 08:19:24;;;;;;;5.05;3.22;;;;;;;-0.21;62.24;93248.75;5110876;27;20114;-41
2022/02/08 08:21:50;;;;;;;4.45;3.13;;;;;;;-0.17;62.01;93250.03;5111143;28;20474;-40
2022/02/08 08:24:16;;;;;;;6.65;3.33;;;;;;;-0.29;63.86;93259.31;5110740;28;20028;-41
2022/02/08 08:26:42;;;;;;;9.63;4.85;;;;;;;-0.50;63.12;93236.25;5091815;28;20036;-36
2022/02/08 08:29:08;;;;;;;6.65;3.58;;;;;;;-0.33;62.98;93258.81;5090826;28;20413;-41
2022/02/08 08:31:33;;;;;;;3.35;2.63;;;;;;;-0.25;62.78;93267.22;5090728;28;20024;-39
2022/02/08 08:33:59;;;;;;;8.80;5.03;;;;;;;-0.18;62.27;93278.41;5090333;28;20028;-40
2022/02/08 08:36:26;;;;;;;8.60;4.40;;;;;;;-0.08;62.28;93263.41;5093814;28;20084;-41
2022/02/08 08:38:54;;;;;;;5.85;3.65;;;;;;;0.05;61.81;93267.66;5090035;28;20124;-39
2022/02/08 08:41:30;;;;;;;4.95;3.88;;;;;;;0.17;61.71;93271.94;5090509;28;20031;-39
2022/02/08 08:49:37;;;;;;;11.88;5.82;;;;;;;0.10;62.46;93280.50;5090638;28;20062;-41
2022/02/08 08:52:03;;;;;;;8.55;4.82;;;;;;;0.15;61.22;93277.09;5090547;28;20054;-40
2022/02/08 08:54:28;;;;;;;9.02;5.70;;;;;;;0.27;62.82;93282.09;5090413;28;20550;-41
2022/02/08 08:56:54;;;;;;;8.18;4.97;;;;;;;0.37;62.28;93283.38;5090284;28;20031;-39
2022/02/08 08:59:20;;;;;;;6.00;3.70;;;;;;;0.30;60.25;93274.94;5090291;28;20028;-39
2022/02/08 09:01:48;;;;;;;11.43;5.70;;;;;;;0.59;61.30;93301.72;5089198;28;20028;-40
2022/02/08 09:04:17;;;;;;;11.02;5.05;;;;;;;0.68;60.71;93306.94;5090069;28;20055;-41
2022/02/08 09:06:45;;;;;;;6.30;4.65;;;;;;;0.77;60.87;93307.50;5088787;28;20035;-41
2022/02/08 09:09:13;;;;;;;4.35;3.55;;;;;;;0.58;59.68;93300.25;5089966;28;20032;-42
2022/02/08 09:11:56;;;;;;;10.35;4.35;;;;;;;0.52;61.75;93281.19;5089958;28;20025;-42
2022/02/08 09:14:36;;;;;;;7.07;3.78;;;;;;;0.57;60.11;93315.06;5091488;28;20032;-41
2022/02/08 09:17:41;;;;;;;4.93;2.97;;;;;;;0.48;60.02;93297.00;5094389;28;20093;-39
2022/02/08 09:20:26;;;;;;;8.70;4.38;;;;;;;0.63;61.42;93291.38;5093936;28;20097;-41
2022/02/08 09:30:34;;;;;;;8.65;3.60;;;;;;;1.18;57.98;93301.66;5094156;28;20020;-40
2022/02/08 09:33:00;;;;;;;4.65;2.90;;;;;;;1.33;57.10;93297.47;5094167;28;20047;-41
2022/02/08 09:35:25;;;;;;;5.85;3.47;;;;;;;1.31;57.45;93299.19;5093538;28;20072;-41
2022/02/08 09:37:50;;;;;;;6.25;3.60;;;;;;;1.44;57.37;93299.47;5093094;28;20052;-41
2022/02/08 09:40:21;;;;;;;4.68;2.88;;;;;;;1.93;57.15;93320.50;5093413;28;20032;-41
2022/02/08 09:42:52;;;;;;;3.83;3.17;;;;;;;2.99;53.74;93304.59;5093550;28;20067;-41
2022/02/08 09:45:19;;;;;;;5.68;3.50;;;;;;;4.82;51.44;93297.63;5093762;28;20039;-41
2022/02/08 09:47:58;;;;;;;6.28;2.65;;;;;;;6.40;44.98;93299.84;5093857;28;20048;-42
2022/02/08 09:50:30;;;;;;;4.63;3.05;;;;;;;6.05;46.82;93296.19;5093452;28;20024;-41
2022/02/08 09:52:59;;;;;;;5.03;2.83;;;;;;;6.91;42.00;93303.84;5093346;28;20056;-41
2022/02/08 09:55:37;;;;;;;3.58;2.58;;;;;;;6.85;44.20;93309.47;5093706;28;20076;-41
2022/02/08 09:58:04;;;;;;;4.85;3.22;;;;;;;7.62;40.68;93309.88;5093597;28;20413;-41
2022/02/08 10:00:32;;;;;;;7.25;5.93;;;;;;;8.07;40.76;93304.13;5095281;28;20032;-41
2022/02/08 10:03:07;;;;;;;5.28;3.97;;;;;;;8.10;41.13;93300.28;5101253;28;20047;-41
2022/02/08 10:05:43;;;;;;;4.93;3.53;;;;;;;7.97;39.95;93302.38;5101234;27;20019;-41
2022/02/08 10:08:09;;;;;;;4.82;2.42;;;;;;;8.23;40.76;93304.97;5101966;28;20451;-41
2022/02/08 10:10:35;;;;;;;5.22;2.90;;;;;;;7.90;40.76;93314.03;5101111;28;20394;-42
2022/02/08 10:13:15;;;;;;;4.40;2.78;;;;;;;6.78;41.06;93301.13;5102957;28;20114;-41
2022/02/08 10:23:55;;;;;;;4.22;3.00;;;;;;;4.76;47.80;93305.16;5100987;28;20023;-41
2022/02/08 10:26:33;;;;;;;4.68;3.08;;;;;;;4.80;48.31;93308.34;5099379;28;20081;-41
2022/02/08 10:29:06;;;;;;;3.08;2.63;;;;;;;4.65;47.87;93322.44;5100838;28;20379;-41
2022/02/08 10:40:24;;;;;;;7.38;4.57;;;;;;;5.35;46.19;93300.19;5102067;28;20055;-41
2022/02/08 10:42:54;;;;;;;6.60;3.65;;;;;;;5.27;48.67;93313.00;5093052;28;20066;-40
2022/02/08 10:45:20;;;;;;;4.00;3.55;;;;;;;4.83;47.35;93302.59;5102307;28;20089;-41
2022/02/08 10:47:48;;;;;;;6.30;4.53;;;;;;;4.48;49.25;93306.19;5101109;28;20024;-39
2022/02/08 10:50:14;;;;;;;6.75;4.20;;;;;;;3.90;50.10;93315.91;5100719;28;20447;-40
2022/02/08 10:52:42;;;;;;;8.73;4.07;;;;;;;3.53;50.16;93304.81;5102345;28;20030;-39
2022/02/08 10:55:27;;;;;;;11.32;7.07;;;;;;;3.27;51.44;93310.66;5101383;28;20027;-41
2022/02/08 10:58:02;;;;;;;8.20;4.28;;;;;;;2.97;52.13;93321.47;5101691;28;20032;-40
2022/02/08 11:00:43;;;;;;;6.82;4.38;;;;;;;3.01;53.55;93310.31;5101936;28;20484;-39
2022/02/08 11:03:15;;;;;;;4.57;2.85;;;;;;;2.81;52.51;93319.56;5101082;28;20504;-41
2022/02/08 11:05:50;;;;;;;6.60;4.10;;;;;;;2.53;54.78;93320.91;5100252;28;20073;-40
2022/02/08 11:08:28;;;;;;;5.53;3.70;;;;;;;2.54;53.55;93320.38;5098596;28;20103;-41
2022/02/08 11:11:19;;;;;;;5.30;3.10;;;;;;;2.53;54.17;93326.34;5098746;28;20043;-41
2022/02/08 11:14:31;;;;;;;4.72;3.50;;;;;;;2.53;53.43;93318.91;5100631;28;20020;-41
2022/02/08 11:19:58;;;;;;;10.93;5.53;;;;;;;2.47;52.95;93329.06;5096690;28;20028;-41
2022/02/08 11:22:47;;;;;;;10.77;5.93;;;;;;;2.36;54.56;93334.53;5102567;28;20077;-40
2022/02/08 11:25:26;;;;;;;;;;;;;;;2.39;55.32;93327.34;5105576;28;20034;-41
2022/02/08 11:28:06;;;;;;;4.32;2.92;;;;;;;2.24;53.98;93325.66;5098423;28;19963;-40
2022/02/08 11:30:45;;;;;;;6.68;4.35;;;;;;;2.14;55.66;93321.69;5106890;28;20042;-40
2022/02/08 11:47:34;;;;;;;3.53;2.50;;;;;;;2.13;56.89;93338.53;5111024;28;20027;-42
2022/02/08 12:05:47;;;;;;;5.03;3.53;;;;;;;2.21;56.31;93329.38;5097738;28;20020;-41
2022/02/08 12:07:52;;;;;;;5.13;3.13;;;;;;;2.18;55.59;93318.75;5089637;28;20447;-41
2022/02/08 12:48:52;;;;;;;10.57;5.75;;;;;;;2.82;54.61;93326.50;5096833;28;20028;-42
2022/02/08 14:12:19;;;;;;;3.08;2.17;;;;;;;2.02;54.24;93448.22;5098589;28;20731;-41
2022/02/08 14:23:24;;;;;;;7.60;2.78;;;;;;;2.15;54.30;93466.78;5099448;28;20058;-41
2022/02/08 15:09:07;;;;;;;8.87;4.43;;;;;;;1.61;53.15;93496.13;5088068;28;20107;-41
2022/02/08 15:11:45;;;;;;;15.20;4.55;;;;;;;1.74;54.71;93523.63;5102383;28;20467;-42
2022/02/08 15:14:10;;;;;;;10.18;6.13;;;;;;;1.75;53.33;93527.84;5103699;28;20024;-41
2022/02/08 15:16:36;;;;;;;10.27;4.97;;;;;;;1.70;54.98;93533.25;5087989;28;20034;-42
2022/02/08 15:19:02;;;;;;;10.40;5.50;;;;;;;1.83;53.67;93544.44;5099108;27;20046;-41
2022/02/08 15:21:33;;;;;;;9.18;4.07;;;;;;;1.76;53.03;93545.66;5099189;28;20020;-42
2022/02/08 15:24:02;;;;;;;5.80;3.00;;;;;;;1.68;53.90;93558.25;5096432;28;20122;-42
2022/02/08 15:26:27;;;;;;;9.47;4.77;;;;;;;1.62;52.71;93549.34;5097576;28;20106;-42
2022/02/08 15:28:53;;;;;;;6.50;3.25;;;;;;;1.51;52.99;93549.28;5095731;28;20080;-41
2022/02/08 15:31:19;;;;;;;10.45;4.10;;;;;;;1.64;55.24;93573.31;5096190;28;20715;-42
2022/02/08 15:33:46;;;;;;;7.45;3.35;;;;;;;1.63;53.77;93574.53;5096913;28;20020;-42
2022/02/08 15:36:15;;;;;;;8.73;3.80;;;;;;;1.64;53.70;93584.22;5102899;28;20027;-41
2022/02/08 15:38:47;;;;;;;9.02;3.47;;;;;;;1.59;53.92;93582.19;5097384;28;20523;-41
2022/02/08 15:41:13;;;;;;;3.97;2.60;;;;;;;1.57;53.21;93592.81;5095523;28;20024;-41
2022/02/08 15:43:39;;;;;;;6.28;2.33;;;;;;;1.57;53.95;93592.81;5089604;28;20028;-42
2022/02/08 15:46:16;;;;;;;6.25;3.33;;;;;;;1.64;53.62;93605.97;5106217;27;20032;-42
2022/02/08 15:48:44;;;;;;;4.72;3.60;;;;;;;1.70;53.66;93617.63;5096088;28;20024;-42
2022/02/08 15:54:12;;;;;;;4.95;2.85;;;;;;;1.51;53.29;93609.88;5097786;28;20024;-42
2022/02/08 16:07:03;;;;;;;3.28;2.15;;;;;;;1.58;53.22;93646.03;5087600;28;20097;-42
2022/02/08 16:12:32;;;;;;;18.23;10.23;;;;;;;1.52;54.22;93662.31;5099190;28;20027;-42
2022/02/08 16:18:10;;;;;;;7.75;3.78;;;;;;;1.51;54.04;93672.47;5107034;28;20036;-41
2022/02/08 16:31:05;;;;;;;4.00;2.25;;;;;;;1.42;52.77;93671.91;5095847;28;20050;-42
2022/02/08 16:57:33;;;;;;;4.93;2.17;;;;;;;1.00;54.19;93731.59;5094204;28;20031;-39
2022/02/08 17:00:02;;;;;;;2.63;1.63;;;;;;;0.99;52.56;93725.44;5097850;28;20031;-42
2022/02/08 17:02:28;;;;;;;;;;;;;;;0.97;54.48;93733.34;5095980;28;20556;-42
2022/02/08 17:04:54;;;;;;;2.55;1.73;;;;;;;0.89;54.27;93742.41;5095368;28;19968;-43
2022/02/08 17:07:21;;;;;;;2.83;1.83;;;;;;;0.89;53.29;93739.69;5097455;28;20073;-41
2022/02/08 17:09:54;;;;;;;5.03;2.03;;;;;;;0.83;54.47;93739.59;5107224;28;20028;-42
2022/02/08 17:47:52;;;;;;;3.13;1.98;;;;;;;0.41;56.30;93775.44;5112506;28;20065;-41
2022/02/08 17:49:54;;;;;;;3.92;2.15;;;;;;;0.44;56.75;93790.03;5104519;28;20054;-42
2022/02/08 17:52:19;;;;;;;4.13;2.13;;;;;;;0.42;56.08;93789.78;5112478;28;20011;-42
2022/02/08 17:54:45;;;;;;;3.83;1.98;;;;;;;0.42;56.71;93800.63;5112085;28;20027;-41
2022/02/08 17:57:11;;;;;;;2.22;2.00;;;;;;;0.47;56.40;93799.97;5113778;28;20080;-41
2022/02/08 17:59:37;;;;;;;5.20;1.90;;;;;;;0.41;57.14;93808.03;5113815;28;20015;-41
2022/02/08 18:02:02;;;;;;;7.03;2.63;;;;;;;0.36;57.43;93805.25;5113994;28;20057;-40
2022/02/08 18:04:28;;;;;;;5.32;3.28;;;;;;;0.37;57.68;93804.78;5113980;28;20489;-41
2022/02/08 18:06:53;;;;;;;3.75;2.42;;;;;;;0.37;56.99;93818.34;5113926;28;20019;-41
2022/02/08 18:09:20;;;;;;;4.55;2.45;;;;;;;0.42;57.51;93814.22;5113601;28;20148;-41
2022/02/08 18:11:46;;;;;;;6.38;3.30;;;;;;;0.44;57.51;93817.97;5113491;28;20015;-41
2022/02/08 18:14:17;;;;;;;4.43;2.97;;;;;;;0.34;57.71;93824.00;5113880;27;20081;-41
2022/02/08 18:16:45;;;;;;;4.75;2.55;;;;;;;0.37;57.63;93823.06;5113884;28;20025;-41
2022/02/08 18:19:17;;;;;;;6.22;2.42;;;;;;;0.34;57.82;93824.75;5113440;28;20024;-42
2022/02/08 18:21:51;;;;;;;5.85;3.03;;;;;;;0.41;58.86;93823.59;5113400;28;20047;-42
2022/02/08 18:27:17;;;;;;;6.53;2.05;;;;;;;0.42;58.23;93831.25;5113660;27;20512;-42
2022/02/08 18:57:33;;;;;;;6.45;3.45;;;;;;;0.58;58.24;93862.59;5112650;28;20045;-41
2022/02/08 19:23:30;;;;;;;7.13;2.80;;;;;;;0.46;60.12;93869.84;5095275;28;20151;-41
2022/02/08 19:25:55;;;;;;;3.50;2.65;;;;;;;0.49;60.03;93895.31;5106784;28;20035;-42
2022/02/08 19:28:21;;;;;;;2.30;2.00;;;;;;;0.53;59.95;93891.19;5107794;28;20028;-43
2022/02/08 19:30:46;;;;;;;3.03;2.00;;;;;;;0.43;60.52;93891.78;5099361;28;20452;-41
2022/02/08 19:33:12;;;;;;;4.10;3.13;;;;;;;0.48;59.79;93905.41;5098435;28;20063;-41
2022/02/08 19:35:37;;;;;;;2.85;2.08;;;;;;;0.56;59.33;93906.50;5088794;28;20058;-41
2022/02/08 19:38:05;;;;;;;8.30;2.58;;;;;;;0.54;59.62;93910.94;5089156;28;20079;-42
2022/02/08 19:40:30;;;;;;;4.57;3.05;;;;;;;0.53;60.53;93907.47;5089317;28;20042;-41
2022/02/08 19:42:56;;;;;;;10.40;3.53;;;;;;;0.55;59.58;93920.59;5089525;28;20722;-42
2022/02/08 19:45:25;;;;;;;9.60;2.70;;;;;;;0.55;59.98;93917.88;5089077;28;20131;-41
2022/02/08 19:47:51;;;;;;;5.35;2.42;;;;;;;0.56;60.14;93930.25;5096189;28;20061;-41